sensor_id;sensor_type;location;lat;lon;timestamp;temperature;humidity
26049;DHT22;13822;51.568;5.086;2022-11-20T00:07:47;0.70;99.90
26049;DHT22;13822;51.568;5.086;2022-11-20T00:47:43;0.80;99.90
26049;DHT22;13822;51.568;5.086;2022-11-20T00:53:50;0.80;99.90
26049;DHT22;13822;51.568;5.086;2022-11-20T00:59:44;0.80;99.90
26049;DHT22;13822;51.568;5.086;2022-11-20T01:18:58;0.70;99.90
26049;DHT22;13822;51.568;5.086;2022-11-20T02:47:04;0.80;99.90
26049;DHT22;13822;51.568;5.086;2022-11-20T02:58:41;0.80;99.90
26049;DHT22;13822;51.568;5.086;2022-11-20T03:40:26;1.00;99.90
26049;DHT22;13822;51.568;5.086;2022-11-20T03:46:15;1.20;99.90
26049;DHT22;13822;51.568;5.086;2022-11-20T04:48:37;1.30;99.90
26049;DHT22;13822;51.568;5.086;2022-11-20T05:39:54;1.00;99.90
26049;DHT22;13822;51.568;5.086;2022-11-20T05:44:56;1.00;99.90
26049;DHT22;13822;51.568;5.086;2022-11-20T05:49:59;1.00;99.90
26049;DHT22;13822;51.568;5.086;2022-11-20T05:55:01;1.00;99.90
26049;DHT22;13822;51.568;5.086;2022-11-20T06:00:03;1.00;99.90
26049;DHT22;13822;51.568;5.086;2022-11-20T06:05:05;1.00;99.90
26049;DHT22;13822;51.568;5.086;2022-11-20T06:10:08;1.00;99.90
26049;DHT22;13822;51.568;5.086;2022-11-20T06:15:10;1.00;99.90
26049;DHT22;13822;51.568;5.086;2022-11-20T06:20:12;1.00;99.90
26049;DHT22;13822;51.568;5.086;2022-11-20T06:25:14;0.90;99.90
26049;DHT22;13822;51.568;5.086;2022-11-20T06:30:16;0.80;99.90
26049;DHT22;13822;51.568;5.086;2022-11-20T06:35:17;0.70;99.90
26049;DHT22;13822;51.568;5.086;2022-11-20T06:40:19;0.70;99.90
26049;DHT22;13822;51.568;5.086;2022-11-20T06:45:21;0.70;99.90
26049;DHT22;13822;51.568;5.086;2022-11-20T06:50:23;0.70;99.90
26049;DHT22;13822;51.568;5.086;2022-11-20T06:55:25;0.70;99.90
26049;DHT22;13822;51.568;5.086;2022-11-20T07:00:27;0.70;99.90
26049;DHT22;13822;51.568;5.086;2022-11-20T07:05:29;0.70;99.90
26049;DHT22;13822;51.568;5.086;2022-11-20T07:10:31;0.60;99.90
26049;DHT22;13822;51.568;5.086;2022-11-20T07:15:33;0.50;99.90
26049;DHT22;13822;51.568;5.086;2022-11-20T07:20:35;0.50;99.90
26049;DHT22;13822;51.568;5.086;2022-11-20T07:25:36;0.50;99.90
26049;DHT22;13822;51.568;5.086;2022-11-20T07:30:38;0.40;99.90
26049;DHT22;13822;51.568;5.086;2022-11-20T07:35:40;0.30;99.90
26049;DHT22;13822;51.568;5.086;2022-11-20T07:40:42;0.30;99.90
26049;DHT22;13822;51.568;5.086;2022-11-20T07:45:44;0.40;99.90
26049;DHT22;13822;51.568;5.086;2022-11-20T07:50:46;0.40;99.90
26049;DHT22;13822;51.568;5.086;2022-11-20T07:55:47;0.40;99.90
26049;DHT22;13822;51.568;5.086;2022-11-20T08:00:49;0.50;99.90
26049;DHT22;13822;51.568;5.086;2022-11-20T08:05:51;0.60;99.90
26049;DHT22;13822;51.568;5.086;2022-11-20T08:10:54;0.70;99.90
26049;DHT22;13822;51.568;5.086;2022-11-20T08:16:15;0.70;99.90
26049;DHT22;13822;51.568;5.086;2022-11-20T08:21:17;0.80;99.90
26049;DHT22;13822;51.568;5.086;2022-11-20T08:26:20;0.80;99.90
26049;DHT22;13822;51.568;5.086;2022-11-20T08:31:23;1.00;99.90
26049;DHT22;13822;51.568;5.086;2022-11-20T08:36:26;1.00;99.90
26049;DHT22;13822;51.568;5.086;2022-11-20T08:41:28;1.10;99.90
26049;DHT22;13822;51.568;5.086;2022-11-20T08:46:34;1.20;99.90
26049;DHT22;13822;51.568;5.086;2022-11-20T08:51:38;1.30;99.90
26049;DHT22;13822;51.568;5.086;2022-11-20T08:56:40;1.30;99.90
26049;DHT22;13822;51.568;5.086;2022-11-20T09:01:42;1.40;99.90
26049;DHT22;13822;51.568;5.086;2022-11-20T09:06:44;1.40;99.90
26049;DHT22;13822;51.568;5.086;2022-11-20T09:11:46;1.50;99.90
26049;DHT22;13822;51.568;5.086;2022-11-20T09:16:48;1.60;99.90
26049;DHT22;13822;51.568;5.086;2022-11-20T09:21:49;1.60;99.90
26049;DHT22;13822;51.568;5.086;2022-11-20T09:27:00;1.70;99.90
26049;DHT22;13822;51.568;5.086;2022-11-20T09:32:03;1.80;99.90
26049;DHT22;13822;51.568;5.086;2022-11-20T09:37:05;1.90;99.90
26049;DHT22;13822;51.568;5.086;2022-11-20T09:42:12;2.00;99.90
26049;DHT22;13822;51.568;5.086;2022-11-20T09:47:20;2.00;99.90
26049;DHT22;13822;51.568;5.086;2022-11-20T10:08:58;2.30;99.90
26049;DHT22;13822;51.568;5.086;2022-11-20T10:20:08;2.50;99.90
26049;DHT22;13822;51.568;5.086;2022-11-20T10:30:06;2.70;99.90
26049;DHT22;13822;51.568;5.086;2022-11-20T10:40:42;2.90;99.90
26049;DHT22;13822;51.568;5.086;2022-11-20T10:50:58;3.00;99.90
26049;DHT22;13822;51.568;5.086;2022-11-20T10:56:05;3.10;99.90
26049;DHT22;13822;51.568;5.086;2022-11-20T11:01:16;3.20;99.90
26049;DHT22;13822;51.568;5.086;2022-11-20T11:11:42;3.30;99.90
26049;DHT22;13822;51.568;5.086;2022-11-20T11:16:54;3.40;99.90
26049;DHT22;13822;51.568;5.086;2022-11-20T11:21:57;3.50;99.90
26049;DHT22;13822;51.568;5.086;2022-11-20T11:27:00;3.60;99.90
26049;DHT22;13822;51.568;5.086;2022-11-20T11:32:13;3.60;99.90
26049;DHT22;13822;51.568;5.086;2022-11-20T11:37:17;3.70;99.90
26049;DHT22;13822;51.568;5.086;2022-11-20T11:42:20;3.70;99.90
26049;DHT22;13822;51.568;5.086;2022-11-20T11:47:24;3.80;99.90
26049;DHT22;13822;51.568;5.086;2022-11-20T11:52:28;3.80;99.90
26049;DHT22;13822;51.568;5.086;2022-11-20T11:57:49;3.80;99.90
26049;DHT22;13822;51.568;5.086;2022-11-20T12:02:58;3.80;99.90
26049;DHT22;13822;51.568;5.086;2022-11-20T12:08:09;3.90;99.90
26049;DHT22;13822;51.568;5.086;2022-11-20T12:18:23;4.00;99.90
26049;DHT22;13822;51.568;5.086;2022-11-20T12:23:31;4.00;99.90
26049;DHT22;13822;51.568;5.086;2022-11-20T12:28:52;4.00;99.90
26049;DHT22;13822;51.568;5.086;2022-11-20T12:39:34;4.10;99.90
26049;DHT22;13822;51.568;5.086;2022-11-20T12:50:21;4.30;99.90
26049;DHT22;13822;51.568;5.086;2022-11-20T13:06:45;4.50;99.90
26049;DHT22;13822;51.568;5.086;2022-11-20T13:11:54;4.60;99.90
26049;DHT22;13822;51.568;5.086;2022-11-20T13:22:08;4.80;99.90
26049;DHT22;13822;51.568;5.086;2022-11-20T13:32:15;4.90;99.90
26049;DHT22;13822;51.568;5.086;2022-11-20T13:37:27;5.00;99.90
26049;DHT22;13822;51.568;5.086;2022-11-20T13:42:43;5.10;99.90
26049;DHT22;13822;51.568;5.086;2022-11-20T13:47:47;5.20;99.90
26049;DHT22;13822;51.568;5.086;2022-11-20T13:59:13;5.30;99.90
26049;DHT22;13822;51.568;5.086;2022-11-20T14:03:54;5.30;99.90
26049;DHT22;13822;51.568;5.086;2022-11-20T14:09:10;5.40;99.90
26049;DHT22;13822;51.568;5.086;2022-11-20T14:14:27;5.40;99.90
26049;DHT22;13822;51.568;5.086;2022-11-20T14:19:34;5.40;99.90
26049;DHT22;13822;51.568;5.086;2022-11-20T14:24:38;5.40;99.90
26049;DHT22;13822;51.568;5.086;2022-11-20T14:29:40;5.50;99.90
26049;DHT22;13822;51.568;5.086;2022-11-20T14:34:43;5.50;99.90
26049;DHT22;13822;51.568;5.086;2022-11-20T14:39:53;5.50;99.90
26049;DHT22;13822;51.568;5.086;2022-11-20T14:44:59;5.50;99.90
26049;DHT22;13822;51.568;5.086;2022-11-20T14:50:02;5.40;99.90
26049;DHT22;13822;51.568;5.086;2022-11-20T14:55:13;5.40;99.90
26049;DHT22;13822;51.568;5.086;2022-11-20T15:05:18;5.50;99.90
26049;DHT22;13822;51.568;5.086;2022-11-20T15:10:25;5.50;99.90
26049;DHT22;13822;51.568;5.086;2022-11-20T15:15:47;5.50;99.90
26049;DHT22;13822;51.568;5.086;2022-11-20T15:20:50;5.60;99.90
26049;DHT22;13822;51.568;5.086;2022-11-20T15:25:53;5.60;99.90
26049;DHT22;13822;51.568;5.086;2022-11-20T15:30:55;5.60;99.90
26049;DHT22;13822;51.568;5.086;2022-11-20T15:35:57;5.70;99.90
26049;DHT22;13822;51.568;5.086;2022-11-20T15:40:59;5.80;99.90
26049;DHT22;13822;51.568;5.086;2022-11-20T15:46:23;5.80;99.90
26049;DHT22;13822;51.568;5.086;2022-11-20T15:51:43;5.90;99.90
26049;DHT22;13822;51.568;5.086;2022-11-20T15:56:48;6.00;99.90
